createdAt,value
2022-12-12T00:00:34.857Z,12.82
2022-12-12T00:01:33.046Z,11.73
2022-12-12T00:02:29.721Z,11.18
2022-12-12T00:03:26.470Z,14.68
2022-12-12T00:04:23.145Z,13.07
2022-12-12T00:05:19.911Z,12.15
2022-12-12T00:06:16.625Z,10.35
2022-12-12T00:07:13.202Z,11.70
2022-12-12T00:08:09.802Z,13.15
2022-12-12T00:09:06.510Z,14.43
2022-12-12T00:10:04.639Z,11.60
2022-12-12T00:11:01.405Z,11.10
2022-12-12T00:11:58.128Z,10.23
2022-12-12T00:12:54.956Z,11.07
2022-12-12T00:13:53.086Z,10.90
2022-12-12T00:14:49.782Z,13.43
2022-12-12T00:15:46.436Z,10.98
2022-12-12T00:16:43.059Z,11.68
2022-12-12T00:17:39.664Z,10.77
2022-12-12T00:18:37.077Z,13.98
2022-12-12T00:19:33.724Z,10.15
2022-12-12T00:20:30.441Z,10.00
2022-12-12T00:21:29.272Z,12.90
2022-12-12T00:22:25.919Z,13.18
2022-12-12T00:23:24.450Z,11.57
2022-12-12T00:24:21.077Z,11.63
2022-12-12T00:25:17.726Z,9.77
2022-12-12T00:26:23.600Z,13.18
2022-12-12T00:27:20.235Z,12.85
2022-12-12T00:28:16.838Z,11.80
2022-12-12T00:29:13.597Z,12.00
2022-12-12T00:30:10.526Z,11.32
2022-12-12T00:31:07.192Z,10.55
2022-12-12T00:32:04.021Z,14.15
2022-12-12T00:33:00.587Z,9.02
2022-12-12T00:33:57.335Z,11.30
2022-12-12T00:34:53.964Z,14.35
2022-12-12T00:35:52.890Z,8.13
2022-12-12T00:36:51.634Z,12.50
2022-12-12T00:37:48.273Z,10.80
2022-12-12T00:38:44.876Z,9.82
2022-12-12T00:39:41.904Z,11.02
2022-12-12T00:40:38.513Z,10.60
2022-12-12T00:41:37.275Z,11.15
2022-12-12T00:42:33.877Z,13.13
2022-12-12T00:43:30.518Z,8.23
2022-12-12T00:44:27.251Z,9.80
2022-12-12T00:45:23.888Z,10.88
2022-12-12T00:46:24.720Z,15.15
2022-12-12T00:47:21.456Z,13.95
2022-12-12T00:48:18.339Z,11.20
2022-12-12T00:49:14.977Z,10.90
2022-12-12T00:50:11.612Z,9.35
2022-12-12T00:51:10.612Z,11.10
2022-12-12T00:52:07.231Z,12.55
2022-12-12T00:53:03.949Z,9.95
2022-12-12T00:54:00.775Z,10.70
2022-12-12T00:54:57.890Z,16.52
2022-12-12T00:55:56.665Z,9.85
2022-12-12T00:56:53.218Z,11.73
2022-12-12T00:57:49.870Z,18.33
2022-12-12T00:58:46.935Z,10.38
2022-12-12T00:59:43.501Z,13.05
2022-12-12T01:00:42.716Z,12.27
2022-12-12T01:01:39.346Z,13.85
2022-12-12T01:02:36.036Z,14.43
2022-12-12T01:03:35.126Z,11.05
2022-12-12T01:04:31.723Z,16.25
2022-12-12T01:05:28.785Z,11.75
2022-12-12T01:06:26.407Z,12.63
2022-12-12T01:07:23.579Z,14.93
2022-12-12T01:08:20.200Z,13.45
2022-12-12T01:09:16.807Z,10.27
2022-12-12T01:10:13.583Z,10.05
2022-12-12T01:11:11.932Z,11.75
2022-12-12T01:12:08.749Z,12.73
2022-12-12T01:13:05.758Z,13.70
2022-12-12T01:14:02.581Z,16.42
2022-12-12T01:14:59.188Z,18.08
2022-12-12T01:15:56.200Z,17.50
2022-12-12T01:16:52.874Z,15.27
2022-12-12T01:17:49.432Z,16.13
2022-12-12T01:18:46.514Z,14.02
2022-12-12T01:19:43.079Z,12.88
2022-12-12T01:20:41.692Z,11.63
2022-12-12T01:21:38.274Z,8.40
2022-12-12T01:22:37.230Z,10.48
2022-12-12T01:23:33.801Z,9.10
2022-12-12T01:24:30.498Z,12.13
2022-12-12T01:25:27.084Z,10.38
2022-12-12T01:26:24.852Z,12.07
2022-12-12T01:27:21.421Z,11.30
2022-12-12T01:28:17.971Z,14.80
2022-12-12T01:29:14.573Z,10.70
2022-12-12T01:30:13.772Z,11.52
2022-12-12T01:31:11.848Z,13.20
2022-12-12T01:32:08.612Z,14.30
2022-12-12T01:33:05.201Z,14.07
2022-12-12T01:34:01.879Z,11.68
2022-12-12T01:34:58.531Z,10.10
2022-12-12T01:35:55.238Z,10.88
2022-12-12T01:36:52.632Z,12.00
2022-12-12T01:37:49.727Z,12.00
2022-12-12T01:38:48.012Z,10.82
2022-12-12T01:39:44.566Z,10.23
2022-12-12T01:40:41.184Z,10.35
2022-12-12T01:41:37.893Z,11.35
2022-12-12T01:42:34.914Z,10.88
2022-12-12T01:43:31.535Z,9.90
2022-12-12T01:44:47.688Z,14.48
2022-12-12T01:45:59.661Z,14.40
2022-12-12T01:46:56.278Z,16.20
2022-12-12T01:47:52.927Z,15.20
2022-12-12T01:48:54.804Z,10.02
2022-12-12T01:49:54.736Z,10.18
2022-12-12T01:50:51.852Z,9.95
2022-12-12T01:51:52.343Z,11.80
2022-12-12T01:52:49.823Z,10.50
2022-12-12T01:53:48.389Z,9.30
2022-12-12T01:54:49.447Z,14.38
2022-12-12T01:55:48.059Z,10.35
2022-12-12T01:56:47.038Z,12.85
2022-12-12T01:57:47.268Z,12.85
2022-12-12T01:58:47.457Z,11.02
2022-12-12T01:59:46.198Z,11.82
2022-12-12T02:00:43.144Z,12.98
2022-12-12T02:01:40.337Z,14.77
2022-12-12T02:02:39.404Z,9.20
2022-12-12T02:03:37.042Z,14.48
2022-12-12T02:04:34.007Z,8.80
2022-12-12T02:05:37.598Z,9.32
2022-12-12T02:06:34.367Z,13.90
2022-12-12T02:07:31.143Z,11.32
2022-12-12T02:08:28.414Z,12.57
2022-12-12T02:09:26.001Z,8.68
2022-12-12T02:10:22.673Z,9.75
2022-12-12T02:11:19.295Z,11.27
2022-12-12T02:12:15.948Z,12.20
2022-12-12T02:13:17.028Z,10.88
2022-12-12T02:14:34.616Z,8.45
2022-12-12T02:15:45.778Z,13.85
2022-12-12T02:16:51.487Z,11.02
2022-12-12T02:18:09.843Z,11.63
2022-12-12T02:19:33.746Z,13.32
2022-12-12T02:21:25.059Z,9.48
2022-12-12T02:22:41.507Z,9.98
2022-12-12T02:23:53.402Z,8.55
2022-12-12T02:25:11.950Z,8.50
2022-12-12T02:26:15.556Z,7.22
2022-12-12T02:27:27.394Z,8.40
2022-12-12T02:29:00.349Z,11.75
2022-12-12T02:29:59.586Z,9.65
2022-12-12T02:31:14.835Z,8.60
2022-12-12T02:32:25.331Z,8.35
2022-12-12T02:33:34.238Z,9.00
2022-12-12T02:34:45.205Z,6.90
2022-12-12T02:36:05.369Z,7.82
2022-12-12T02:37:12.858Z,10.27
2022-12-12T02:38:25.854Z,9.50
2022-12-12T02:39:54.614Z,8.68
2022-12-12T02:41:00.006Z,9.57
2022-12-12T02:42:10.570Z,8.68
2022-12-12T02:43:13.459Z,9.38
2022-12-12T02:44:38.460Z,8.32
2022-12-12T02:45:51.270Z,8.55
2022-12-12T02:47:06.333Z,7.82
2022-12-12T02:48:33.843Z,6.68
2022-12-12T02:49:41.089Z,7.38
2022-12-12T02:50:40.083Z,6.05
2022-12-12T02:51:38.414Z,6.28
2022-12-12T02:52:36.266Z,10.43
2022-12-12T02:53:33.110Z,7.32
2022-12-12T02:54:29.896Z,6.43
2022-12-12T02:55:26.914Z,8.27
2022-12-12T02:56:41.909Z,4.82
2022-12-12T02:57:41.675Z,5.25
2022-12-12T02:58:38.738Z,5.68
2022-12-12T02:59:41.894Z,6.43
2022-12-12T03:00:56.536Z,6.15
2022-12-12T03:02:22.577Z,7.05
2022-12-12T03:03:53.882Z,6.32
2022-12-12T03:05:32.749Z,4.50
2022-12-12T03:07:15.633Z,4.50
2022-12-12T03:08:42.186Z,7.43
2022-12-12T03:10:04.606Z,6.50
2022-12-12T03:11:11.029Z,8.38
2022-12-12T03:12:17.394Z,7.85
2022-12-12T03:13:35.621Z,6.45
2022-12-12T03:14:44.123Z,4.72
2022-12-12T03:16:12.319Z,5.68
2022-12-12T03:17:18.154Z,4.95
2022-12-12T03:18:26.854Z,6.43
2022-12-12T03:19:28.659Z,6.28
2022-12-12T03:20:43.187Z,9.32
2022-12-12T03:21:59.599Z,6.55
2022-12-12T03:23:02.797Z,4.70
2022-12-12T03:24:05.700Z,3.40
2022-12-12T03:25:24.556Z,4.40
2022-12-12T03:26:32.019Z,4.95
2022-12-12T03:27:48.351Z,5.45
2022-12-12T03:29:08.125Z,6.53
2022-12-12T03:30:11.884Z,8.43
2022-12-12T03:31:12.057Z,5.97
2022-12-12T03:32:16.563Z,6.20
2022-12-12T03:33:32.693Z,7.55
2022-12-12T03:34:38.770Z,5.53
2022-12-12T03:35:41.795Z,6.38
2022-12-12T03:36:49.023Z,6.60
2022-12-12T03:37:58.756Z,7.22
2022-12-12T03:39:06.145Z,7.28
2022-12-12T03:40:14.157Z,8.48
2022-12-12T03:41:22.180Z,8.32
2022-12-12T03:42:18.707Z,7.35
2022-12-12T03:43:20.199Z,6.47
2022-12-12T03:44:29.338Z,4.93
2022-12-12T03:45:35.255Z,7.75
2022-12-12T03:46:39.619Z,6.60
2022-12-12T03:47:43.727Z,7.97
2022-12-12T03:48:49.351Z,8.40
2022-12-12T03:49:58.381Z,4.82
2022-12-12T03:51:00.680Z,6.22
2022-12-12T03:52:11.785Z,6.00
2022-12-12T03:53:22.142Z,5.85
2022-12-12T03:54:25.896Z,6.20
2022-12-12T03:55:45.360Z,10.75
2022-12-12T03:56:51.061Z,8.05
2022-12-12T03:57:56.875Z,4.95
2022-12-12T03:59:01.657Z,5.10
2022-12-12T04:00:05.900Z,6.40
2022-12-12T04:01:07.954Z,5.68
2022-12-12T04:02:16.828Z,6.10
2022-12-12T04:03:25.163Z,7.10
2022-12-12T04:04:29.436Z,8.07
2022-12-12T04:05:30.851Z,9.27
2022-12-12T04:06:39.035Z,6.50
2022-12-12T04:07:43.995Z,6.75
2022-12-12T04:09:00.680Z,5.72
2022-12-12T04:10:15.910Z,6.53
2022-12-12T04:11:39.152Z,4.68
2022-12-12T04:13:03.536Z,4.95
2022-12-12T04:14:32.861Z,6.07
2022-12-12T04:15:53.162Z,5.47
2022-12-12T04:17:00.660Z,8.52
2022-12-12T04:18:33.502Z,8.82
2022-12-12T04:20:18.277Z,5.05
2022-12-12T04:21:58.996Z,6.38
2022-12-12T04:23:16.448Z,10.20
2022-12-12T04:24:20.262Z,6.68
2022-12-12T04:26:04.920Z,7.13
2022-12-12T04:27:07.246Z,6.65
2022-12-12T04:28:07.558Z,7.32
2022-12-12T04:29:19.426Z,7.88
2022-12-12T04:30:16.845Z,7.70
2022-12-12T04:31:14.009Z,7.47
2022-12-12T04:32:42.546Z,8.70
2022-12-12T04:33:48.704Z,7.43
2022-12-12T04:35:00.138Z,7.97
2022-12-12T04:36:00.195Z,10.80
2022-12-12T04:36:56.925Z,9.65
2022-12-12T04:38:00.764Z,11.23
2022-12-12T04:39:00.156Z,12.57
2022-12-12T04:40:00.024Z,10.50
2022-12-12T04:40:59.481Z,14.20
2022-12-12T04:41:57.548Z,11.38
2022-12-12T04:42:59.360Z,11.05
2022-12-12T04:43:56.981Z,13.27
2022-12-12T04:44:59.297Z,12.23
2022-12-12T04:46:09.752Z,17.88
2022-12-12T04:47:09.095Z,12.70
2022-12-12T04:48:09.417Z,11.02
2022-12-12T04:49:15.730Z,11.32
2022-12-12T04:50:14.047Z,13.63
2022-12-12T04:51:13.814Z,12.68
2022-12-12T04:52:13.882Z,14.82
2022-12-12T04:53:18.528Z,17.17
2022-12-12T04:54:49.075Z,11.85
2022-12-12T04:55:54.855Z,12.73
2022-12-12T04:56:58.582Z,10.75
2022-12-12T04:57:55.767Z,10.40
2022-12-12T04:58:52.423Z,12.98
2022-12-12T04:59:49.653Z,18.30
2022-12-12T05:00:51.917Z,15.98
2022-12-12T05:01:57.401Z,12.18
2022-12-12T05:03:19.924Z,11.90
2022-12-12T05:04:25.128Z,15.75
2022-12-12T05:05:28.204Z,14.70
2022-12-12T05:06:32.963Z,15.98
2022-12-12T05:07:37.859Z,13.43
2022-12-12T05:08:42.822Z,14.57
2022-12-12T05:09:39.996Z,9.35
2022-12-12T05:10:43.839Z,7.97
2022-12-12T05:11:42.123Z,8.60
2022-12-12T05:12:50.037Z,8.02
2022-12-12T05:13:46.631Z,10.27
2022-12-12T05:14:43.446Z,13.25
2022-12-12T05:15:44.799Z,8.93
2022-12-12T05:16:47.492Z,8.55
2022-12-12T05:18:45.755Z,11.30
2022-12-12T05:19:42.323Z,8.30
2022-12-12T05:20:39.082Z,10.88
2022-12-12T05:21:35.710Z,8.55
2022-12-12T05:22:32.403Z,13.20
2022-12-12T05:23:34.369Z,11.25
2022-12-12T05:24:32.029Z,13.65
2022-12-12T05:25:28.661Z,12.52
2022-12-12T05:26:28.326Z,11.18
2022-12-12T05:27:24.930Z,11.63
2022-12-12T05:28:21.558Z,13.18
2022-12-12T05:29:18.177Z,14.65
2022-12-12T05:30:14.981Z,12.50
2022-12-12T05:31:11.650Z,11.52
2022-12-12T05:32:08.243Z,13.82
2022-12-12T05:33:04.849Z,11.93
2022-12-12T05:34:01.478Z,11.32
2022-12-12T05:34:58.045Z,14.50
2022-12-12T05:35:54.615Z,10.00
2022-12-12T05:36:51.282Z,10.00
2022-12-12T05:37:51.637Z,8.65
2022-12-12T05:38:48.705Z,9.45
2022-12-12T05:39:45.298Z,6.10
2022-12-12T05:40:41.932Z,6.43
2022-12-12T05:41:38.493Z,7.25
2022-12-12T05:42:35.255Z,6.53
2022-12-12T05:43:32.187Z,5.68
2022-12-12T05:44:28.804Z,8.63
2022-12-12T05:45:25.498Z,7.25
2022-12-12T05:46:22.133Z,5.88
2022-12-12T05:47:21.353Z,7.07
2022-12-12T05:48:23.963Z,6.13
2022-12-12T05:49:21.064Z,5.55
2022-12-12T05:50:17.810Z,5.82
2022-12-12T05:51:14.403Z,7.47
2022-12-12T05:52:11.088Z,7.00
2022-12-12T05:53:07.741Z,6.20
2022-12-12T05:54:04.468Z,6.38
2022-12-12T05:55:01.098Z,7.63
2022-12-12T05:55:57.820Z,7.38
2022-12-12T05:56:54.510Z,7.72
2022-12-12T05:57:51.059Z,10.20
2022-12-12T05:58:47.659Z,6.57
2022-12-12T05:59:44.631Z,8.82
2022-12-12T06:00:41.248Z,10.25
2022-12-12T06:01:37.851Z,14.40
2022-12-12T06:02:34.606Z,7.10
2022-12-12T06:03:32.481Z,8.50
2022-12-12T06:04:29.197Z,5.82
2022-12-12T06:05:25.936Z,8.55
2022-12-12T06:06:22.832Z,9.18
2022-12-12T06:07:19.476Z,10.32
2022-12-12T06:08:18.803Z,8.70
2022-12-12T06:09:17.974Z,20.58
2022-12-12T06:10:14.763Z,17.40
2022-12-12T06:11:12.691Z,16.63
2022-12-12T06:12:09.413Z,14.65
2022-12-12T06:13:05.980Z,13.77
2022-12-12T06:14:02.571Z,18.42
2022-12-12T06:14:59.154Z,13.95
2022-12-12T06:15:55.761Z,14.60
2022-12-12T06:16:52.874Z,13.65
2022-12-12T06:17:51.488Z,17.50
2022-12-12T06:18:55.597Z,16.92
2022-12-12T06:19:52.886Z,17.75
2022-12-12T06:20:49.491Z,16.58
2022-12-12T06:21:46.108Z,12.25
2022-12-12T06:22:42.700Z,15.05
2022-12-12T06:23:41.002Z,16.83
2022-12-12T06:24:37.630Z,15.40
2022-12-12T06:25:34.355Z,16.08
2022-12-12T06:26:31.075Z,15.88
2022-12-12T06:27:28.016Z,17.30
2022-12-12T06:28:24.628Z,14.63
2022-12-12T06:29:21.193Z,17.25
2022-12-12T06:30:17.861Z,17.92
2022-12-12T06:31:15.778Z,17.63
2022-12-12T06:32:12.398Z,17.60
2022-12-12T06:33:08.970Z,22.73
2022-12-12T06:34:05.538Z,22.30
2022-12-12T06:35:02.162Z,24.83
2022-12-12T06:36:26.836Z,19.35
2022-12-12T06:37:23.589Z,23.92
2022-12-12T06:38:20.644Z,17.63
2022-12-12T06:39:18.049Z,18.90
2022-12-12T06:40:15.678Z,14.95
2022-12-12T06:41:15.006Z,14.13
2022-12-12T06:42:11.571Z,14.38
2022-12-12T06:43:08.110Z,17.45
2022-12-12T06:44:04.929Z,12.95
2022-12-12T06:45:01.579Z,14.32
2022-12-12T06:46:03.647Z,13.90
2022-12-12T06:47:00.566Z,16.50
2022-12-12T06:47:57.167Z,14.20
2022-12-12T06:48:55.257Z,13.25
2022-12-12T06:49:51.901Z,12.63
2022-12-12T06:50:48.527Z,15.68
2022-12-12T06:51:45.286Z,15.70
2022-12-12T06:52:41.910Z,15.02
2022-12-12T06:53:38.598Z,19.35
2022-12-12T07:50:36.274Z,24.77
2022-12-12T07:51:32.910Z,23.17
2022-12-12T07:52:29.579Z,26.50
2022-12-12T07:53:26.194Z,23.00
2022-12-12T07:54:22.744Z,23.88
2022-12-12T07:55:19.344Z,23.42
2022-12-12T07:56:17.726Z,23.60
2022-12-12T07:57:14.343Z,24.05
2022-12-12T07:58:11.015Z,25.38
2022-12-12T07:59:07.857Z,25.33
2022-12-12T08:00:15.833Z,24.73
2022-12-12T08:01:18.633Z,23.88
2022-12-12T08:02:15.318Z,25.02
2022-12-12T08:03:12.007Z,23.40
2022-12-12T08:04:08.662Z,21.20
2022-12-12T08:07:16.122Z,22.83
2022-12-12T08:08:12.782Z,25.77
2022-12-12T08:09:09.409Z,26.00
2022-12-12T08:10:06.215Z,20.38
2022-12-12T08:11:11.427Z,21.23
2022-12-12T08:12:08.219Z,22.90
2022-12-12T08:13:05.022Z,22.58
2022-12-12T08:14:01.647Z,24.67
2022-12-12T08:14:58.377Z,22.83
2022-12-12T08:15:55.162Z,24.08
2022-12-12T08:16:52.617Z,34.08
2022-12-12T08:17:49.281Z,30.52
2022-12-12T08:18:46.164Z,30.77
2022-12-12T08:19:42.815Z,36.13
2022-12-12T08:20:41.892Z,40.33
2022-12-12T08:21:38.431Z,36.92
2022-12-12T08:22:35.150Z,36.00
2022-12-12T08:23:31.739Z,31.15
2022-12-12T08:24:31.238Z,34.55
2022-12-12T08:25:27.923Z,36.47
2022-12-12T08:26:26.150Z,38.38
2022-12-12T08:27:22.750Z,41.97
2022-12-12T08:28:19.368Z,32.88
2022-12-12T08:29:16.051Z,29.42
2022-12-12T08:30:12.927Z,28.73
2022-12-12T08:31:09.646Z,32.53
2022-12-12T08:32:06.332Z,27.55
2022-12-12T08:33:07.957Z,34.90
2022-12-12T08:34:05.646Z,19.00
2022-12-12T08:35:02.379Z,30.88
2022-12-12T08:35:58.958Z,27.15
2022-12-12T08:36:55.536Z,36.53
2022-12-12T08:37:52.202Z,26.95
2022-12-12T08:38:49.792Z,28.48
2022-12-12T08:39:48.405Z,25.40
2022-12-12T08:40:48.131Z,28.30
2022-12-12T08:41:50.190Z,27.65
2022-12-12T08:42:46.785Z,24.95
2022-12-12T08:43:44.200Z,25.65
2022-12-12T08:44:41.110Z,24.80
2022-12-12T08:45:38.894Z,24.55
2022-12-12T08:46:38.374Z,26.30
2022-12-12T08:47:35.083Z,24.52
2022-12-12T08:48:31.832Z,23.50
2022-12-12T08:49:28.375Z,22.83
2022-12-12T08:50:24.992Z,26.55
2022-12-12T08:51:22.046Z,22.88
2022-12-12T08:52:18.818Z,25.73
2022-12-12T08:53:15.442Z,25.45
2022-12-12T08:54:12.990Z,24.98
2022-12-12T08:55:09.657Z,25.45
2022-12-12T08:56:06.769Z,27.80
2022-12-12T08:57:03.471Z,27.85
2022-12-12T08:58:00.102Z,24.08
2022-12-12T08:58:56.679Z,26.63
2022-12-12T08:59:53.202Z,31.00
2022-12-12T09:00:49.976Z,25.52
2022-12-12T09:01:46.652Z,26.52
2022-12-12T09:02:44.223Z,25.42
2022-12-12T09:03:40.920Z,31.13
2022-12-12T09:04:38.095Z,29.30
2022-12-12T09:05:35.637Z,27.98
2022-12-12T09:06:32.301Z,26.30
2022-12-12T09:07:28.937Z,28.05
2022-12-12T09:08:25.657Z,32.13
2022-12-12T09:09:22.344Z,30.10
2022-12-12T09:10:18.934Z,24.70
2022-12-12T09:11:16.271Z,25.63
2022-12-12T09:12:12.925Z,27.73
2022-12-12T09:13:11.405Z,27.13
2022-12-12T09:14:07.988Z,26.63
2022-12-12T09:15:05.090Z,23.17
2022-12-12T09:16:01.956Z,27.50
2022-12-12T09:16:58.576Z,25.70
2022-12-12T09:17:55.268Z,25.60
2022-12-12T09:18:52.141Z,25.15
2022-12-12T09:19:48.710Z,25.70
2022-12-12T09:20:56.091Z,28.55
2022-12-12T09:21:52.673Z,27.90
2022-12-12T09:22:49.343Z,27.98
2022-12-12T09:23:46.254Z,28.50
2022-12-12T09:24:42.968Z,27.08
2022-12-12T09:25:42.600Z,33.22
2022-12-12T09:26:39.384Z,38.53
2022-12-12T09:27:36.439Z,35.13
2022-12-12T09:28:33.314Z,42.28
2022-12-12T09:29:30.077Z,44.78
2022-12-12T09:30:26.726Z,43.88
2022-12-12T09:31:23.501Z,38.85
2022-12-12T09:32:24.577Z,41.67
2022-12-12T09:33:21.598Z,42.20
2022-12-12T09:34:18.208Z,38.58
2022-12-12T09:35:15.231Z,42.30
2022-12-12T09:36:13.824Z,41.42
2022-12-12T09:37:10.558Z,41.85
2022-12-12T09:38:14.006Z,46.45
2022-12-12T09:39:11.343Z,46.42
2022-12-12T09:40:09.426Z,38.80
2022-12-12T09:41:09.053Z,44.83
2022-12-12T09:42:11.323Z,43.33
2022-12-12T09:43:15.829Z,49.85
2022-12-12T09:44:18.682Z,50.33
2022-12-12T09:45:16.001Z,42.75
2022-12-12T09:47:00.507Z,45.78
2022-12-12T09:48:00.813Z,49.42
2022-12-12T09:49:07.500Z,56.40
2022-12-12T09:50:14.655Z,50.92
2022-12-12T09:51:13.052Z,59.72
2022-12-12T09:52:15.744Z,61.38
2022-12-12T09:53:16.330Z,60.13
2022-12-12T09:54:16.690Z,64.18
2022-12-12T09:55:20.460Z,75.37
2022-12-12T09:56:35.191Z,55.80
2022-12-12T09:57:44.623Z,61.42
2022-12-12T09:58:53.866Z,57.30
2022-12-12T10:00:05.594Z,65.63
2022-12-12T10:01:08.006Z,57.25
2022-12-12T10:03:37.830Z,56.78
2022-12-12T10:04:53.830Z,49.95
2022-12-12T10:06:28.589Z,74.70
2022-12-12T10:07:43.546Z,54.67
2022-12-12T10:08:42.943Z,53.00
2022-12-12T10:10:01.033Z,49.63
2022-12-12T10:11:27.346Z,50.35
2022-12-12T10:12:25.894Z,55.53
2022-12-12T10:13:26.849Z,56.10
2022-12-12T10:14:38.788Z,51.05
2022-12-12T10:15:39.340Z,60.20
2022-12-12T10:16:38.606Z,54.88
2022-12-12T10:17:43.331Z,57.83
2022-12-12T10:18:43.458Z,63.03
2022-12-12T10:19:49.850Z,54.55
2022-12-12T10:20:52.177Z,55.67
2022-12-12T10:21:51.764Z,51.60
2022-12-12T10:23:17.421Z,55.17
2022-12-12T10:24:33.737Z,54.05
2022-12-12T10:25:49.020Z,54.20
2022-12-12T10:26:45.636Z,53.33
2022-12-12T10:27:42.257Z,48.95
2022-12-12T10:28:39.142Z,59.83
2022-12-12T10:29:41.200Z,50.80
2022-12-12T10:31:08.045Z,48.05
2022-12-12T10:32:27.682Z,49.58
2022-12-12T10:33:51.335Z,63.05
2022-12-12T10:36:34.379Z,56.55
2022-12-12T10:37:54.220Z,52.97
2022-12-12T10:39:21.551Z,51.58
2022-12-12T10:40:37.665Z,56.28
2022-12-12T10:41:48.872Z,55.72
2022-12-12T10:43:02.505Z,59.67
2022-12-12T10:44:20.001Z,54.30
2022-12-12T10:45:40.820Z,59.75
2022-12-12T10:46:50.029Z,61.25
2022-12-12T10:47:47.022Z,50.70
2022-12-12T10:48:45.707Z,47.22
2022-12-12T10:49:42.576Z,51.28
2022-12-12T10:50:44.616Z,50.90
2022-12-12T10:51:43.550Z,42.20
2022-12-12T10:52:40.403Z,56.42
2022-12-12T10:53:37.203Z,47.95
2022-12-12T10:54:44.230Z,46.63
2022-12-12T10:56:00.578Z,48.90
2022-12-12T10:57:18.011Z,54.00
2022-12-12T10:58:19.506Z,40.17
2022-12-12T10:59:22.209Z,37.70
2022-12-12T11:00:29.434Z,45.60
2022-12-12T11:02:08.561Z,43.60
2022-12-12T11:02:56.850Z,44.72
2022-12-12T11:03:59.112Z,49.10
2022-12-12T11:05:07.152Z,47.45
2022-12-12T11:06:08.014Z,57.15
2022-12-12T11:07:04.842Z,43.85
2022-12-12T11:08:07.476Z,57.00
2022-12-12T11:09:15.707Z,42.45
2022-12-12T11:10:26.865Z,47.53
2022-12-12T11:11:28.586Z,46.97
2022-12-12T11:12:35.103Z,35.13
2022-12-12T11:13:39.459Z,55.90
2022-12-12T11:14:37.694Z,52.38
2022-12-12T11:15:46.236Z,51.03
2022-12-12T11:16:44.720Z,44.05
2022-12-12T11:17:41.761Z,43.50
2022-12-12T11:18:38.370Z,50.00
2022-12-12T11:19:39.215Z,41.95
2022-12-12T11:20:44.361Z,47.58
2022-12-12T11:21:41.346Z,35.15
2022-12-12T11:22:39.712Z,44.20
2022-12-12T11:23:40.759Z,38.67
2022-12-12T11:24:43.315Z,42.88
2022-12-12T11:25:39.897Z,38.72
2022-12-12T11:26:49.246Z,39.05
2022-12-12T11:27:46.326Z,40.65
2022-12-12T11:28:45.625Z,37.95
2022-12-12T11:29:47.964Z,41.78
2022-12-12T11:30:44.857Z,35.90
2022-12-12T11:31:43.914Z,32.47
2022-12-12T11:32:47.486Z,38.88
2022-12-12T11:33:52.778Z,41.42
2022-12-12T11:34:58.257Z,43.20
2022-12-12T11:35:56.191Z,40.70
2022-12-12T11:36:53.699Z,43.78
2022-12-12T11:37:56.102Z,41.35
2022-12-12T11:39:54.256Z,47.95
2022-12-12T11:41:03.795Z,42.20
2022-12-12T11:42:16.452Z,44.65
2022-12-12T11:43:29.443Z,36.05
2022-12-12T11:44:30.097Z,45.95
2022-12-12T11:45:26.790Z,37.25
2022-12-12T11:46:33.733Z,40.78
2022-12-12T11:47:38.757Z,51.30
2022-12-12T11:48:41.144Z,42.75
2022-12-12T11:50:46.471Z,43.70
2022-12-12T11:51:44.463Z,40.10
2022-12-12T11:52:41.067Z,43.88
2022-12-12T11:53:45.128Z,42.80
2022-12-12T11:54:41.732Z,43.90
2022-12-12T11:56:04.822Z,42.47
2022-12-12T11:57:06.691Z,42.22
2022-12-12T11:58:26.581Z,47.33
2022-12-12T11:59:35.115Z,41.55
2022-12-12T12:00:42.431Z,46.40
2022-12-12T12:02:11.283Z,40.83
2022-12-12T12:03:35.624Z,51.20
2022-12-12T12:05:11.843Z,45.03
2022-12-12T12:06:34.586Z,54.13
2022-12-12T12:08:03.339Z,48.08
2022-12-12T12:09:22.425Z,57.28
2022-12-12T12:10:36.254Z,44.13
2022-12-12T12:11:59.115Z,45.80
2022-12-12T12:13:13.879Z,39.00
2022-12-12T12:14:42.777Z,55.10
2022-12-12T12:16:07.616Z,43.00
2022-12-12T12:17:07.052Z,40.03
2022-12-12T12:18:19.805Z,46.97
2022-12-12T12:19:26.039Z,46.20
2022-12-12T12:20:49.806Z,43.83
2022-12-12T12:22:23.686Z,48.17
2022-12-12T12:23:42.470Z,44.55
2022-12-12T12:24:40.786Z,44.28
2022-12-12T12:25:51.861Z,45.50
2022-12-12T12:27:25.273Z,47.92
2022-12-12T12:28:34.524Z,46.87
2022-12-12T12:29:52.046Z,46.17
2022-12-12T12:31:06.371Z,47.22
2022-12-12T12:32:12.666Z,49.17
2022-12-12T12:33:30.939Z,48.10
2022-12-12T12:34:33.719Z,49.60
2022-12-12T12:35:50.316Z,53.50
2022-12-12T12:37:14.120Z,46.03
2022-12-12T12:38:16.893Z,49.28
2022-12-12T12:39:34.922Z,45.63
2022-12-12T12:40:48.648Z,51.45
2022-12-12T12:41:45.273Z,51.42
2022-12-12T12:43:14.010Z,51.72
2022-12-12T12:44:30.521Z,44.78
2022-12-12T12:45:45.752Z,45.58
2022-12-12T12:47:00.985Z,44.65
2022-12-12T12:48:19.466Z,34.72
2022-12-12T12:49:23.649Z,52.40
2022-12-12T12:50:28.305Z,40.35
2022-12-12T12:51:31.762Z,43.10
2022-12-12T12:52:36.604Z,44.67
2022-12-12T12:53:42.743Z,43.67
2022-12-12T12:54:41.245Z,43.67
2022-12-12T12:55:47.747Z,43.85
2022-12-12T12:56:50.626Z,60.00
2022-12-12T12:57:50.346Z,43.42
2022-12-12T12:58:49.590Z,46.88
2022-12-12T12:59:53.719Z,45.30
2022-12-12T13:00:59.977Z,46.28
2022-12-12T13:02:01.617Z,50.13
2022-12-12T13:03:07.491Z,48.20
2022-12-12T13:04:22.678Z,50.38
2022-12-12T13:05:22.603Z,44.30
2022-12-12T13:06:25.754Z,47.25
2022-12-12T13:07:28.938Z,50.38
2022-12-12T13:08:39.973Z,46.75
2022-12-12T13:09:59.768Z,46.45
2022-12-12T13:11:07.813Z,48.70
2022-12-12T13:12:33.420Z,52.42
2022-12-12T13:13:32.815Z,48.28
2022-12-12T13:14:49.465Z,51.92
2022-12-12T13:15:51.679Z,48.80
2022-12-12T13:16:50.985Z,39.65
2022-12-12T13:18:01.617Z,44.88
2022-12-12T13:19:24.188Z,41.65
2022-12-12T13:20:25.868Z,62.58
2022-12-12T13:21:35.547Z,54.35
2022-12-12T13:22:53.696Z,48.15
2022-12-12T13:24:03.181Z,39.75
2022-12-12T13:25:19.012Z,51.20
2022-12-12T13:26:21.590Z,51.67
2022-12-12T13:27:26.387Z,45.60
2022-12-12T13:28:42.494Z,51.97
2022-12-12T13:29:47.584Z,59.28
2022-12-12T13:30:53.157Z,51.88
2022-12-12T13:32:02.995Z,51.22
2022-12-12T13:33:14.322Z,56.72
2022-12-12T13:34:16.967Z,45.55
2022-12-12T13:35:18.127Z,51.55
2022-12-12T13:36:30.282Z,50.78
2022-12-12T13:37:29.105Z,41.40
2022-12-12T13:38:30.223Z,48.38
2022-12-12T13:39:30.515Z,45.38
2022-12-12T13:40:32.439Z,52.13
2022-12-12T13:42:03.016Z,41.35
2022-12-12T13:43:10.211Z,49.08
2022-12-12T13:44:33.165Z,47.30
2022-12-12T13:45:32.543Z,39.00
2022-12-12T13:46:37.972Z,45.10
2022-12-12T13:47:34.626Z,38.88
2022-12-12T13:48:46.447Z,45.83
2022-12-12T13:50:22.628Z,52.53
2022-12-12T13:51:28.071Z,42.65
2022-12-12T13:52:28.897Z,45.25
2022-12-12T13:53:25.490Z,42.00
2022-12-12T13:54:22.388Z,43.25
2022-12-12T13:55:22.682Z,45.47
2022-12-12T13:56:32.264Z,47.00
2022-12-12T13:57:31.527Z,46.10
2022-12-12T13:58:35.006Z,44.17
2022-12-12T13:59:31.928Z,41.55
2022-12-12T14:00:32.400Z,43.75
2022-12-12T14:01:29.006Z,60.05
2022-12-12T14:02:30.972Z,40.22
2022-12-12T14:03:30.887Z,52.17
2022-12-12T14:04:36.537Z,60.22
2022-12-12T14:05:48.813Z,50.65
2022-12-12T14:06:45.524Z,44.10
2022-12-12T14:08:01.659Z,40.72
2022-12-12T14:08:58.950Z,66.22
2022-12-12T14:09:57.518Z,48.58
2022-12-12T14:11:08.291Z,59.40
2022-12-12T14:12:31.368Z,54.92
2022-12-12T14:13:36.403Z,54.05
2022-12-12T14:14:36.586Z,46.90
2022-12-12T14:15:33.694Z,56.30
2022-12-12T14:16:30.850Z,55.85
2022-12-12T14:17:30.401Z,52.92
2022-12-12T14:18:30.570Z,54.65
2022-12-12T14:19:35.662Z,55.15
2022-12-12T14:20:43.784Z,56.45
2022-12-12T14:21:45.309Z,57.70
2022-12-12T14:22:44.891Z,66.50
2022-12-12T14:23:50.298Z,60.15
2022-12-12T14:25:19.118Z,72.38
2022-12-12T14:26:27.810Z,53.97
2022-12-12T14:27:45.934Z,53.00
2022-12-12T14:28:42.553Z,57.65
2022-12-12T14:29:41.962Z,64.63
2022-12-12T14:30:58.804Z,57.35
2022-12-12T14:32:04.658Z,56.72
2022-12-12T14:33:26.604Z,59.35
2022-12-12T14:34:38.327Z,63.80
2022-12-12T14:35:44.476Z,52.63
2022-12-12T14:36:49.667Z,57.38
2022-12-12T14:38:11.856Z,55.47
2022-12-12T14:39:33.348Z,49.70
2022-12-12T14:40:33.509Z,64.13
2022-12-12T14:41:35.997Z,60.33
2022-12-12T14:44:38.182Z,72.72
2022-12-12T14:45:49.840Z,60.17
2022-12-12T14:46:47.070Z,60.75
2022-12-12T14:47:43.720Z,60.78
2022-12-12T14:48:40.348Z,57.08
2022-12-12T14:49:37.363Z,61.15
2022-12-12T14:50:34.363Z,52.88